createdAt,value
2019-03-13T00:02:29.411Z,99461.31
2019-03-13T00:04:57.307Z,99462.19
2019-03-13T00:07:25.026Z,99467.61
2019-03-13T00:09:52.793Z,99465.34
2019-03-13T00:12:20.498Z,99455.66
2019-03-13T00:14:48.451Z,99463.68
2019-03-13T00:17:16.455Z,99450.47
2019-03-13T00:19:44.351Z,99443.21
2019-03-13T00:22:12.261Z,99435.34
2019-03-13T00:24:40.244Z,99429.16
2019-03-13T00:27:08.262Z,99422.75
2019-03-13T00:29:37.001Z,99419.60
2019-03-13T00:32:06.768Z,99408.67
2019-03-13T00:34:34.855Z,99401.77
2019-03-13T00:37:02.935Z,99383.83
2019-03-13T00:39:31.018Z,99373.61
2019-03-13T00:41:59.039Z,99381.06
2019-03-13T00:44:27.126Z,99378.66
2019-03-13T00:46:55.143Z,99379.98
2019-03-13T00:49:23.394Z,99381.64
2019-03-13T00:51:51.420Z,99375.97
2019-03-13T00:54:19.502Z,99375.16
2019-03-13T00:56:47.420Z,99365.82
2019-03-13T00:59:15.522Z,99368.75
2019-03-13T01:01:50.010Z,99361.19
2019-03-13T01:04:40.781Z,99359.14
2019-03-13T01:07:10.226Z,99350.34
2019-03-13T01:09:38.367Z,99344.91
2019-03-13T01:12:06.893Z,99330.89
2019-03-13T01:14:35.726Z,99341.31
2019-03-13T01:17:04.480Z,99340.42
2019-03-13T01:19:32.472Z,99338.42
2019-03-13T01:22:00.512Z,99338.08
2019-03-13T01:24:28.731Z,99342.12
2019-03-13T01:26:56.793Z,99344.91
2019-03-13T01:29:28.848Z,99344.83
2019-03-13T01:32:19.132Z,99345.36
2019-03-13T01:34:55.270Z,99337.62
2019-03-13T01:37:23.299Z,99337.07
2019-03-13T01:39:51.216Z,99345.63
2019-03-13T01:42:19.320Z,99345.55
2019-03-13T01:44:47.244Z,99345.29
2019-03-13T01:47:15.219Z,99350.80
2019-03-13T01:49:43.192Z,99337.80
2019-03-13T01:52:11.270Z,99328.12
2019-03-13T01:54:39.508Z,99324.92
2019-03-13T01:57:07.434Z,99318.02
2019-03-13T01:59:35.472Z,99322.56
2019-03-13T02:02:03.682Z,99325.45
2019-03-13T02:04:31.834Z,99320.63
2019-03-13T02:06:59.953Z,99321.52
2019-03-13T02:09:27.978Z,99313.03
2019-03-13T02:11:56.106Z,99310.50
2019-03-13T02:14:24.118Z,99298.00
2019-03-13T02:16:52.250Z,99287.52
2019-03-13T02:19:20.176Z,99268.53
2019-03-13T02:21:48.303Z,99258.12
2019-03-13T02:24:16.361Z,99251.10
2019-03-13T02:26:44.789Z,99236.83
2019-03-13T02:29:13.318Z,99229.23
2019-03-13T02:31:41.458Z,99230.84
2019-03-13T02:34:09.498Z,99234.55
2019-03-13T02:36:37.605Z,99231.80
2019-03-13T02:39:06.011Z,99229.18
2019-03-13T02:41:34.114Z,99215.72
2019-03-13T02:44:02.130Z,99215.03
2019-03-13T02:46:30.125Z,99213.79
2019-03-13T02:48:58.023Z,99214.26
2019-03-13T02:51:26.026Z,99209.70
2019-03-13T02:53:54.091Z,99206.41
2019-03-13T02:56:22.075Z,99197.56
2019-03-13T02:58:50.314Z,99196.17
2019-03-13T03:01:38.342Z,99195.08
2019-03-13T03:04:08.901Z,99199.91
2019-03-13T03:06:36.909Z,99190.05
2019-03-13T03:09:07.547Z,99186.80
2019-03-13T03:11:35.622Z,99182.86
2019-03-13T03:14:03.650Z,99174.91
2019-03-13T03:16:31.681Z,99174.91
2019-03-13T03:18:59.705Z,99163.94
2019-03-13T03:21:28.355Z,99152.20
2019-03-13T03:23:56.543Z,99151.44
2019-03-13T03:26:24.580Z,99141.23
2019-03-13T03:28:52.604Z,99133.70
2019-03-13T03:31:20.649Z,99125.61
2019-03-13T03:34:02.041Z,99128.64
2019-03-13T03:36:31.070Z,99128.64
2019-03-13T03:39:00.004Z,99139.70
2019-03-13T03:41:28.400Z,99133.42
2019-03-13T03:43:56.710Z,99149.41
2019-03-13T03:46:24.736Z,99155.00
2019-03-13T03:48:52.846Z,99156.31
2019-03-13T03:51:20.981Z,99152.32
2019-03-13T03:53:48.949Z,99138.52
2019-03-13T03:56:17.486Z,99118.33
2019-03-13T03:58:46.066Z,99134.47
2019-03-13T04:01:14.153Z,99125.56
2019-03-13T04:03:42.316Z,99129.34
2019-03-13T04:06:10.456Z,99127.13
2019-03-13T04:08:38.536Z,99121.29
2019-03-13T04:11:07.483Z,99110.51
2019-03-13T04:13:35.587Z,99109.61
2019-03-13T04:16:03.613Z,99108.11
2019-03-13T04:18:31.600Z,99108.45
2019-03-13T04:20:59.651Z,99105.20
2019-03-13T04:23:27.665Z,99100.98
2019-03-13T04:25:55.705Z,99098.64
2019-03-13T04:28:23.808Z,99092.60
2019-03-13T04:30:52.338Z,99092.60
2019-03-13T04:33:20.334Z,99087.75
2019-03-13T04:35:48.279Z,99088.83
2019-03-13T04:38:16.177Z,99079.70
2019-03-13T04:40:44.327Z,99076.86
2019-03-13T04:43:12.504Z,99083.93
2019-03-13T04:45:40.421Z,99084.06
2019-03-13T04:48:09.146Z,99075.72
2019-03-13T04:50:37.216Z,99081.70
2019-03-13T04:53:05.339Z,99072.34
2019-03-13T04:55:33.385Z,99059.38
2019-03-13T04:58:01.491Z,99069.43
2019-03-13T05:00:29.549Z,99067.83
2019-03-13T05:02:57.562Z,99055.24
2019-03-13T05:05:57.087Z,99065.41
2019-03-13T05:08:44.546Z,99057.78
2019-03-13T05:11:04.550Z,99067.32
2019-03-13T05:13:32.529Z,99068.13
2019-03-13T05:16:00.606Z,99076.98
2019-03-13T05:18:28.512Z,99072.84
2019-03-13T05:20:56.551Z,99064.03
2019-03-13T05:23:25.970Z,99059.28
2019-03-13T05:25:54.096Z,99056.49
2019-03-13T05:28:22.085Z,99074.34
2019-03-13T05:30:52.980Z,99081.12
2019-03-13T05:33:20.220Z,99099.05
2019-03-13T05:35:48.316Z,99112.91
2019-03-13T05:38:16.138Z,99124.83
2019-03-13T05:40:44.213Z,99138.61
2019-03-13T05:43:12.146Z,99137.55
2019-03-13T05:45:40.964Z,99150.48
2019-03-13T05:48:08.949Z,99156.13
2019-03-13T05:50:37.471Z,99157.69
2019-03-13T05:53:05.438Z,99174.03
2019-03-13T05:55:33.541Z,99164.73
2019-03-13T05:58:01.463Z,99173.89
2019-03-13T06:00:29.803Z,99182.71
2019-03-13T06:02:58.752Z,99185.05
2019-03-13T06:05:26.927Z,99204.88
2019-03-13T06:07:55.075Z,99226.52
2019-03-13T06:10:23.166Z,99230.09
2019-03-13T06:12:51.114Z,99225.30
2019-03-13T06:15:19.111Z,99222.30
2019-03-13T06:17:47.134Z,99229.05
2019-03-13T06:20:15.268Z,99234.17
2019-03-13T06:22:43.305Z,99236.22
2019-03-13T06:25:11.688Z,99248.64
2019-03-13T06:27:39.641Z,99251.36
2019-03-13T06:30:09.074Z,99255.90
2019-03-13T06:32:37.023Z,99247.78
2019-03-13T06:35:05.410Z,99253.05
2019-03-13T06:37:33.636Z,99259.70
2019-03-13T06:40:06.910Z,99266.52
2019-03-13T06:42:34.955Z,99268.47
2019-03-13T06:45:03.118Z,99259.39
2019-03-13T06:47:31.076Z,99253.45
2019-03-13T06:49:59.304Z,99240.94
2019-03-13T06:52:27.319Z,99258.19
2019-03-13T06:54:55.433Z,99257.67
2019-03-13T06:57:23.347Z,99260.30
2019-03-13T07:00:22.597Z,99256.17
2019-03-13T07:03:09.885Z,99255.44
2019-03-13T07:05:56.699Z,99250.88
2019-03-13T07:08:59.393Z,99268.91
2019-03-13T07:11:47.598Z,99265.39
2019-03-13T07:14:26.522Z,99271.64
2019-03-13T07:17:06.470Z,99287.81
2019-03-13T07:19:59.585Z,99284.09
2019-03-13T07:22:45.812Z,99276.78
2019-03-13T07:25:31.845Z,99290.41
2019-03-13T07:28:29.249Z,99288.03
2019-03-13T07:31:34.754Z,99298.90
2019-03-13T07:34:24.893Z,99303.52
2019-03-13T07:37:02.846Z,99301.70
2019-03-13T07:40:05.136Z,99305.31
2019-03-13T07:42:55.552Z,99307.52
2019-03-13T07:45:55.392Z,99316.14
2019-03-13T07:48:45.682Z,99314.28
2019-03-13T07:51:28.581Z,99310.45
2019-03-13T07:54:16.099Z,99320.44
2019-03-13T07:57:01.954Z,99313.09
2019-03-13T07:59:55.249Z,99319.11
2019-03-13T08:02:42.565Z,99333.34
2019-03-13T08:05:18.072Z,99320.27
2019-03-13T08:08:05.590Z,99322.00
2019-03-13T08:11:08.158Z,99331.34
2019-03-13T08:13:54.399Z,99331.77
2019-03-13T08:16:46.692Z,99333.60
2019-03-13T08:19:40.443Z,99339.80
2019-03-13T08:22:26.344Z,99337.74
2019-03-13T08:25:29.030Z,99345.48
2019-03-13T08:31:37.132Z,99341.98
2019-03-13T08:34:36.527Z,99341.88
2019-03-13T08:37:17.104Z,99351.89
2019-03-13T08:40:13.895Z,99347.13
2019-03-13T08:43:00.561Z,99348.91
2019-03-13T08:45:46.943Z,99360.39
2019-03-13T08:48:24.549Z,99357.14
2019-03-13T08:51:16.685Z,99357.92
2019-03-13T08:54:04.177Z,99359.27
2019-03-13T08:56:49.979Z,99361.20
2019-03-13T08:59:33.280Z,99368.13
2019-03-13T09:02:05.742Z,99376.75
2019-03-13T09:04:59.306Z,99368.30
2019-03-13T09:07:44.374Z,99372.45
2019-03-13T09:10:31.513Z,99372.14
2019-03-13T09:13:11.434Z,99372.48
2019-03-13T09:15:46.960Z,99380.12
2019-03-13T09:18:37.209Z,99379.89
2019-03-13T09:21:20.160Z,99390.81
2019-03-13T09:24:23.016Z,99382.87
2019-03-13T09:27:09.344Z,99383.20
2019-03-13T09:30:02.544Z,99392.57
2019-03-13T09:32:52.914Z,99410.12
2019-03-13T09:35:55.423Z,99390.06
2019-03-13T09:38:31.682Z,99406.51
2019-03-13T09:41:10.787Z,99394.72
2019-03-13T09:43:59.605Z,99396.07
2019-03-13T09:46:44.454Z,99399.41
2019-03-13T09:49:53.765Z,99398.12
2019-03-13T09:52:39.842Z,99400.80
2019-03-13T09:55:34.485Z,99405.02
2019-03-13T09:58:25.571Z,99405.87
2019-03-13T10:01:13.958Z,99405.22
2019-03-13T10:03:54.736Z,99419.39
2019-03-13T10:06:37.758Z,99411.73
2019-03-13T10:09:21.973Z,99438.77
2019-03-13T10:11:57.930Z,99415.31
2019-03-13T10:14:47.864Z,99411.55
2019-03-13T10:17:30.435Z,99417.59
2019-03-13T10:20:35.586Z,99434.84
2019-03-13T10:23:21.770Z,99405.16
2019-03-13T10:26:08.510Z,99431.30
2019-03-13T10:28:48.686Z,99433.30
2019-03-13T10:31:24.766Z,99441.09
2019-03-13T10:34:07.860Z,99459.51
2019-03-13T10:37:00.956Z,99427.95
2019-03-13T10:39:43.526Z,99435.23
2019-03-13T10:42:24.214Z,99447.01
2019-03-13T10:45:07.815Z,99439.06
2019-03-13T10:47:44.660Z,99437.87
2019-03-13T10:50:31.180Z,99442.64
2019-03-13T10:53:21.293Z,99450.57
2019-03-13T10:56:07.955Z,99445.60
2019-03-13T10:58:58.246Z,99442.91
2019-03-13T11:02:00.845Z,99453.01
2019-03-13T11:04:38.581Z,99433.70
2019-03-13T11:07:28.585Z,99425.19
2019-03-13T11:10:14.061Z,99421.70
2019-03-13T11:13:07.332Z,99426.98
2019-03-13T11:16:06.978Z,99419.33
2019-03-13T11:18:49.499Z,99411.25
2019-03-13T11:21:34.285Z,99417.22
2019-03-13T11:24:14.750Z,99418.02
2019-03-13T11:27:02.273Z,99413.22
2019-03-13T11:29:40.126Z,99414.85
2019-03-13T11:32:43.133Z,99410.12
2019-03-13T11:35:36.550Z,99396.45
2019-03-13T11:38:24.207Z,99401.04
2019-03-13T11:41:09.207Z,99406.94
2019-03-13T11:43:52.129Z,99412.30
2019-03-13T11:46:45.621Z,99394.43
2019-03-13T11:49:39.415Z,99386.11
2019-03-13T11:52:30.522Z,99389.25
2019-03-13T11:55:17.936Z,99398.23
2019-03-13T11:58:20.297Z,99396.19
2019-03-13T12:01:17.181Z,99391.32
2019-03-13T12:04:21.639Z,99386.89
2019-03-13T12:06:56.767Z,99381.22
2019-03-13T12:09:42.136Z,99378.22
2019-03-13T12:12:47.919Z,99375.63
2019-03-13T12:15:24.993Z,99378.32
2019-03-13T12:18:10.265Z,99366.72
2019-03-13T12:21:00.840Z,99360.02
2019-03-13T12:23:48.161Z,99356.82
2019-03-13T12:26:50.904Z,99356.23
2019-03-13T12:29:27.875Z,99356.23
2019-03-13T12:32:27.311Z,99362.70
2019-03-13T12:35:13.148Z,99354.02
2019-03-13T12:38:01.201Z,99354.13
2019-03-13T12:40:48.416Z,99358.64
2019-03-13T12:43:32.396Z,99352.77
2019-03-13T12:46:19.867Z,99353.50
2019-03-13T12:48:57.534Z,99338.24
2019-03-13T12:51:38.662Z,99331.08
2019-03-13T12:54:16.184Z,99324.47
2019-03-13T12:57:12.580Z,99323.84
2019-03-13T12:59:58.915Z,99320.00
2019-03-13T13:02:55.395Z,99320.00
2019-03-13T13:05:51.502Z,99316.09
2019-03-13T13:08:41.700Z,99318.06
2019-03-13T13:11:27.990Z,99307.39
2019-03-13T13:14:15.243Z,99307.39
2019-03-13T13:17:02.693Z,99298.92
2019-03-13T13:19:30.721Z,99308.88
2019-03-13T13:21:58.884Z,99308.88
2019-03-13T13:24:26.742Z,99307.61
2019-03-13T13:26:54.771Z,99291.69
2019-03-13T13:29:22.902Z,99291.69
2019-03-13T13:31:51.010Z,99294.37
2019-03-13T13:34:19.140Z,99297.86
2019-03-13T13:36:47.204Z,99297.86
2019-03-13T13:39:15.229Z,99295.75
2019-03-13T13:41:43.278Z,99291.91
2019-03-13T13:44:11.363Z,99290.34
2019-03-13T13:46:40.241Z,99290.34
2019-03-13T13:49:08.346Z,99296.91
2019-03-13T13:51:37.158Z,99294.68
2019-03-13T13:54:05.347Z,99302.11
2019-03-13T13:56:33.459Z,99302.11
2019-03-13T13:59:01.400Z,99294.55
2019-03-13T14:01:29.430Z,99275.00
2019-03-13T14:03:57.866Z,99288.28
2019-03-13T14:06:26.079Z,99289.66
2019-03-13T14:08:54.243Z,99293.66
2019-03-13T14:11:22.433Z,99283.61
2019-03-13T14:13:50.459Z,99293.28
2019-03-13T14:16:18.693Z,99291.38
2019-03-13T14:18:46.878Z,99291.38
2019-03-13T14:21:15.027Z,99298.00
2019-03-13T14:23:43.049Z,99320.97
2019-03-13T14:26:11.144Z,99291.80
2019-03-13T14:28:39.789Z,99291.80
2019-03-13T14:31:08.035Z,99296.90
2019-03-13T14:33:36.388Z,99278.65
2019-03-13T14:36:04.476Z,99278.65
2019-03-13T14:38:32.448Z,99294.59
2019-03-13T14:41:00.573Z,99282.09
2019-03-13T14:43:28.693Z,99289.22
2019-03-13T14:45:56.922Z,99300.92
2019-03-13T14:48:24.985Z,99312.94
2019-03-13T14:50:53.146Z,99295.29
2019-03-13T14:53:21.224Z,99295.29
2019-03-13T14:55:49.345Z,99314.20
2019-03-13T14:58:17.400Z,99296.85
2019-03-13T15:00:45.487Z,99296.85
2019-03-13T15:03:13.585Z,99296.84
2019-03-13T15:05:42.084Z,99296.84
2019-03-13T15:08:10.218Z,99288.45
2019-03-13T15:10:38.366Z,99292.64
2019-03-13T15:13:06.532Z,99296.20
2019-03-13T15:15:34.660Z,99298.69
2019-03-13T15:18:02.670Z,99298.69
2019-03-13T15:20:30.905Z,99300.89
2019-03-13T15:22:58.963Z,99306.87
2019-03-13T15:25:26.934Z,99306.87
2019-03-13T15:27:54.982Z,99291.19
2019-03-13T15:30:25.376Z,99294.00
2019-03-13T15:32:53.629Z,99287.59
2019-03-13T15:35:21.757Z,99293.64
2019-03-13T15:37:49.692Z,99290.34
2019-03-13T15:40:17.883Z,99287.72
2019-03-13T15:42:46.396Z,99285.28
2019-03-13T15:45:16.028Z,99287.41
2019-03-13T15:47:44.167Z,99289.39
2019-03-13T15:50:12.897Z,99292.80
2019-03-13T15:52:41.017Z,99292.80
2019-03-13T15:55:10.199Z,99289.98
2019-03-13T15:57:38.791Z,99285.50
2019-03-13T16:00:12.262Z,99293.84
2019-03-13T16:02:40.392Z,99291.14
2019-03-13T16:05:08.552Z,99292.89
2019-03-13T16:07:36.758Z,99289.23
2019-03-13T16:10:05.424Z,99298.25
2019-03-13T16:12:33.532Z,99291.93
2019-03-13T16:15:01.473Z,99298.91
2019-03-13T16:17:29.671Z,99296.79
2019-03-13T16:19:57.741Z,99296.66
2019-03-13T16:22:25.874Z,99287.04
2019-03-13T16:24:53.907Z,99296.84
2019-03-13T16:27:22.079Z,99287.56
2019-03-13T16:29:50.149Z,99289.11
2019-03-13T16:32:19.371Z,99285.27
2019-03-13T16:34:47.401Z,99288.77
2019-03-13T16:37:15.598Z,99293.72
2019-03-13T16:39:43.742Z,99291.06
2019-03-13T16:42:11.853Z,99288.78
2019-03-13T16:44:39.867Z,99292.92
2019-03-13T16:47:07.989Z,99289.63
2019-03-13T16:49:39.059Z,99292.83
2019-03-13T16:52:06.045Z,99288.89
2019-03-13T16:54:34.077Z,99294.66
2019-03-13T16:57:02.180Z,99301.42
2019-03-13T16:59:30.118Z,99299.46
2019-03-13T17:01:58.260Z,99294.84
2019-03-13T17:04:26.404Z,99295.85
2019-03-13T17:06:54.513Z,99294.22
2019-03-13T17:09:22.616Z,99289.08
2019-03-13T17:11:51.240Z,99288.29
2019-03-13T17:14:20.924Z,99287.13
2019-03-13T17:16:48.990Z,99297.22
2019-03-13T17:19:17.061Z,99294.08
2019-03-13T17:21:45.202Z,99292.91
2019-03-13T17:24:13.236Z,99291.77
2019-03-13T17:26:41.937Z,99290.27
2019-03-13T17:29:09.931Z,99294.42
2019-03-13T17:31:38.131Z,99286.13
2019-03-13T17:34:06.263Z,99289.91
2019-03-13T17:36:34.934Z,99301.53
2019-03-13T17:39:04.753Z,99283.33
2019-03-13T17:41:32.803Z,99280.98
2019-03-13T17:44:00.950Z,99274.70
2019-03-13T17:46:29.023Z,99274.71
2019-03-13T17:48:57.170Z,99275.70
2019-03-13T17:51:25.602Z,99276.36
2019-03-13T17:53:53.662Z,99277.20
2019-03-13T17:56:21.691Z,99259.83
2019-03-13T17:58:49.839Z,99272.39
2019-03-13T18:01:18.894Z,99269.09
2019-03-13T18:03:49.862Z,99276.66
2019-03-13T18:06:29.434Z,99271.17
2019-03-13T18:08:57.590Z,99274.66
2019-03-13T18:11:25.675Z,99273.31
2019-03-13T18:13:54.470Z,99269.84
2019-03-13T18:16:22.547Z,99266.84
2019-03-13T18:18:50.721Z,99271.45
2019-03-13T18:21:20.243Z,99270.63
2019-03-13T18:23:48.427Z,99267.12
2019-03-13T18:26:16.514Z,99278.50
2019-03-13T18:28:45.348Z,99266.66
2019-03-13T18:31:13.422Z,99267.96
2019-03-13T18:33:41.519Z,99267.78
2019-03-13T18:36:09.525Z,99258.85
2019-03-13T18:38:37.645Z,99266.95
2019-03-13T18:41:05.766Z,99268.12
2019-03-13T18:43:33.898Z,99270.94
2019-03-13T18:46:01.960Z,99269.45
2019-03-13T18:48:29.939Z,99269.41
2019-03-13T18:50:57.989Z,99279.52
2019-03-13T18:53:25.996Z,99267.93
2019-03-13T18:55:54.214Z,99262.32
2019-03-13T18:58:22.252Z,99263.32
2019-03-13T19:00:50.331Z,99266.61
2019-03-13T19:03:18.475Z,99270.86
2019-03-13T19:05:46.519Z,99269.20
2019-03-13T19:08:17.910Z,99267.90
2019-03-13T19:10:46.064Z,99269.50
2019-03-13T19:13:14.354Z,99271.30
2019-03-13T19:15:43.917Z,99269.78
2019-03-13T19:18:12.043Z,99266.28
2019-03-13T19:20:41.583Z,99254.08
2019-03-13T19:23:09.697Z,99266.05
2019-03-13T19:25:37.660Z,99258.62
2019-03-13T19:28:05.791Z,99259.07
2019-03-13T19:30:33.865Z,99259.41
2019-03-13T19:33:02.034Z,99253.70
2019-03-13T19:35:30.086Z,99250.26
2019-03-13T19:37:58.612Z,99244.59
2019-03-13T19:40:26.667Z,99242.05
2019-03-13T19:42:54.872Z,99230.80
2019-03-13T19:45:31.424Z,99237.56
2019-03-13T19:48:01.281Z,99228.98
2019-03-13T19:50:29.535Z,99220.91
2019-03-13T19:52:57.594Z,99225.45
2019-03-13T19:55:25.860Z,99229.20
2019-03-13T19:57:53.993Z,99223.36
2019-03-13T20:00:22.834Z,99227.59
2019-03-13T20:03:00.113Z,99227.34
2019-03-13T20:05:21.229Z,99218.38
2019-03-13T20:07:50.362Z,99214.14
2019-03-13T20:10:21.323Z,99209.99
2019-03-13T20:13:02.392Z,99192.55
2019-03-13T20:15:30.642Z,99209.22
2019-03-13T20:17:58.809Z,99211.32
2019-03-13T20:20:26.921Z,99209.64
2019-03-13T20:22:57.214Z,99206.30
2019-03-13T20:25:25.621Z,99204.48
2019-03-13T20:27:54.806Z,99201.91
2019-03-13T20:30:23.502Z,99204.88
2019-03-13T20:32:51.590Z,99204.64
2019-03-13T20:35:19.856Z,99207.84
2019-03-13T20:37:47.776Z,99199.71
2019-03-13T20:40:19.310Z,99200.81
2019-03-13T20:42:47.364Z,99191.09
2019-03-13T20:45:18.533Z,99193.30
2019-03-13T20:47:46.689Z,99193.47
2019-03-13T20:50:14.770Z,99193.16
2019-03-13T20:52:45.678Z,99198.99
2019-03-13T20:55:13.380Z,99187.03
2019-03-13T20:57:41.426Z,99187.25
2019-03-13T21:00:11.802Z,99188.13
2019-03-13T21:02:39.859Z,99190.89
2019-03-13T21:05:07.982Z,99188.77
2019-03-13T21:07:36.038Z,99188.77
2019-03-13T21:10:04.622Z,99186.50
2019-03-13T21:12:32.755Z,99178.56
2019-03-13T21:15:08.781Z,99177.81
2019-03-13T21:17:36.786Z,99178.95
2019-03-13T21:20:05.713Z,99169.06
2019-03-13T21:22:33.740Z,99167.61
2019-03-13T21:25:01.711Z,99158.24
2019-03-13T21:27:29.759Z,99162.81
2019-03-13T21:29:58.217Z,99168.03
2019-03-13T21:32:26.145Z,99158.17
2019-03-13T21:34:54.224Z,99157.55
2019-03-13T21:37:22.183Z,99149.31
2019-03-13T21:39:50.397Z,99151.25
2019-03-13T21:42:18.439Z,99154.83
2019-03-13T21:44:46.451Z,99151.58
2019-03-13T21:47:14.397Z,99147.94
2019-03-13T21:49:42.475Z,99143.03
2019-03-13T21:52:11.298Z,99145.05
2019-03-13T21:54:39.430Z,99134.87
2019-03-13T21:57:07.386Z,99139.95
2019-03-13T21:59:35.407Z,99133.50
2019-03-13T22:02:03.427Z,99136.11
2019-03-13T22:04:31.550Z,99132.36
2019-03-13T22:06:59.640Z,99130.68
2019-03-13T22:09:27.655Z,99137.58
2019-03-13T22:11:55.738Z,99122.94
2019-03-13T22:14:23.648Z,99133.48
2019-03-13T22:16:54.792Z,99122.45
2019-03-13T22:19:22.970Z,99123.41
2019-03-13T22:21:50.955Z,99123.87
2019-03-13T22:24:18.951Z,99115.19
2019-03-13T22:26:47.030Z,99112.08
2019-03-13T22:29:15.047Z,99115.86
2019-03-13T22:31:43.152Z,99114.04
2019-03-13T22:34:11.197Z,99113.05
2019-03-13T22:36:39.315Z,99108.92
2019-03-13T22:39:07.683Z,99114.70
2019-03-13T22:41:36.771Z,99110.33
2019-03-13T22:44:05.726Z,99105.52
2019-03-13T22:46:34.421Z,99106.20
2019-03-13T22:49:02.341Z,99105.69
2019-03-13T22:51:30.412Z,99102.19
2019-03-13T22:53:58.433Z,99104.68
2019-03-13T22:56:26.517Z,99101.83
2019-03-13T22:58:54.433Z,99099.39
2019-03-13T23:01:23.727Z,99109.08
2019-03-13T23:03:51.739Z,99097.54
2019-03-13T23:06:20.125Z,99099.91
2019-03-13T23:08:48.260Z,99099.45
2019-03-13T23:11:17.093Z,99100.08
2019-03-13T23:13:45.149Z,99096.84
2019-03-13T23:16:13.271Z,99101.19
2019-03-13T23:18:41.230Z,99093.30
2019-03-13T23:21:09.417Z,99086.38
2019-03-13T23:23:37.451Z,99082.87
2019-03-13T23:26:05.582Z,99077.62
2019-03-13T23:28:33.527Z,99081.91
2019-03-13T23:31:01.656Z,99091.77
2019-03-13T23:33:29.748Z,99085.13
2019-03-13T23:35:58.508Z,99083.67
2019-03-13T23:38:26.617Z,99074.92
2019-03-13T23:40:54.925Z,99075.08
2019-03-13T23:43:24.716Z,99077.00
2019-03-13T23:45:52.761Z,99073.55
2019-03-13T23:48:20.742Z,99073.09
2019-03-13T23:50:48.611Z,99066.30
2019-03-13T23:53:16.763Z,99072.84
2019-03-13T23:55:44.783Z,99067.11
2019-03-13T23:58:12.905Z,99069.86
